createdAt,value
2017-09-06T00:00:22.560Z,2.90
2017-09-06T00:02:25.019Z,3.00
2017-09-06T00:04:27.639Z,3.20
2017-09-06T00:06:30.109Z,3.23
2017-09-06T00:08:32.688Z,3.37
2017-09-06T00:10:35.192Z,3.77
2017-09-06T00:12:37.656Z,8.20
2017-09-06T00:14:40.133Z,3.70
2017-09-06T00:16:42.595Z,3.33
2017-09-06T00:18:45.033Z,4.30
2017-09-06T00:20:47.498Z,4.80
2017-09-06T00:22:50.016Z,3.67
2017-09-06T00:24:52.488Z,7.60
2017-09-06T00:26:54.954Z,4.03
2017-09-06T00:28:57.421Z,3.80
2017-09-06T00:30:59.914Z,4.17
2017-09-06T00:33:02.348Z,3.57
2017-09-06T00:35:04.829Z,3.03
2017-09-06T00:37:07.328Z,3.60
2017-09-06T00:39:09.769Z,3.63
2017-09-06T00:41:12.348Z,2.40
2017-09-06T00:43:14.789Z,5.00
2017-09-06T00:45:17.290Z,3.13
2017-09-06T00:47:19.828Z,6.17
2017-09-06T00:49:22.394Z,2.40
2017-09-06T00:51:24.964Z,2.77
2017-09-06T00:53:27.428Z,4.53
2017-09-06T00:55:29.872Z,2.97
2017-09-06T00:57:32.310Z,3.93
2017-09-06T00:59:35.005Z,4.20
2017-09-06T01:01:37.458Z,3.90
2017-09-06T01:03:40.033Z,2.80
2017-09-06T01:05:42.516Z,2.80
2017-09-06T01:07:44.948Z,4.90
2017-09-06T01:09:47.391Z,2.90
2017-09-06T01:11:49.867Z,7.90
2017-09-06T01:13:52.446Z,5.50
2017-09-06T01:15:54.885Z,3.63
2017-09-06T01:17:57.489Z,4.23
2017-09-06T01:20:00.072Z,2.80
2017-09-06T01:22:02.555Z,3.50
2017-09-06T01:24:05.104Z,2.30
2017-09-06T01:26:07.657Z,3.20
2017-09-06T01:28:10.093Z,4.83
2017-09-06T01:30:12.752Z,4.80
2017-09-06T01:32:15.217Z,4.23
2017-09-06T01:34:17.658Z,3.23
2017-09-06T01:36:20.204Z,3.73
2017-09-06T01:38:22.669Z,4.50
2017-09-06T01:40:25.230Z,3.67
2017-09-06T01:42:27.850Z,3.70
2017-09-06T01:44:30.351Z,3.83
2017-09-06T01:46:32.940Z,4.17
2017-09-06T01:48:35.397Z,2.50
2017-09-06T01:50:37.864Z,2.60
2017-09-06T01:52:42.453Z,3.97
2017-09-06T01:54:45.026Z,3.40
2017-09-06T01:56:47.541Z,2.30
2017-09-06T01:58:49.983Z,3.20
2017-09-06T02:00:52.533Z,2.80
2017-09-06T02:02:55.216Z,3.77
2017-09-06T02:04:57.697Z,3.30
2017-09-06T02:07:00.257Z,3.67
2017-09-06T02:09:02.690Z,2.40
2017-09-06T02:11:05.150Z,2.63
2017-09-06T02:13:07.644Z,4.10
2017-09-06T02:15:10.169Z,2.80
2017-09-06T02:17:12.689Z,2.67
2017-09-06T02:19:15.225Z,3.10
2017-09-06T02:21:17.696Z,3.00
2017-09-06T02:23:20.221Z,2.77
2017-09-06T02:25:22.725Z,2.40
2017-09-06T02:27:25.196Z,3.20
2017-09-06T02:29:27.774Z,2.90
2017-09-06T02:31:30.341Z,2.80
2017-09-06T02:33:32.773Z,3.00
2017-09-06T02:35:35.213Z,2.40
2017-09-06T02:37:37.666Z,3.93
2017-09-06T02:39:40.142Z,2.80
2017-09-06T02:41:42.609Z,2.70
2017-09-06T02:43:45.231Z,2.47
2017-09-06T02:45:47.700Z,4.20
2017-09-06T02:47:50.210Z,3.30
2017-09-06T02:49:52.674Z,2.53
2017-09-06T02:51:55.117Z,3.10
2017-09-06T02:53:58.813Z,2.20
2017-09-06T02:56:01.318Z,2.60
2017-09-06T02:58:03.856Z,2.70
2017-09-06T03:00:06.429Z,3.10
2017-09-06T03:02:09.000Z,3.70
2017-09-06T03:04:11.505Z,2.50
2017-09-06T03:06:13.977Z,3.37
2017-09-06T03:08:16.453Z,2.27
2017-09-06T03:10:19.063Z,2.23
2017-09-06T03:12:21.665Z,2.00
2017-09-06T03:14:24.223Z,4.03
2017-09-06T03:16:26.737Z,2.67
2017-09-06T03:18:29.212Z,2.77
2017-09-06T03:20:31.731Z,3.13
2017-09-06T03:22:34.178Z,2.73
2017-09-06T03:24:36.613Z,2.67
2017-09-06T03:26:39.076Z,2.83
2017-09-06T03:28:41.573Z,2.20
2017-09-06T03:30:44.029Z,2.00
2017-09-06T03:32:46.604Z,2.00
2017-09-06T03:34:49.118Z,7.43
2017-09-06T03:36:51.713Z,4.57
2017-09-06T03:38:54.220Z,2.43
2017-09-06T03:40:56.661Z,3.87
2017-09-06T03:42:59.121Z,2.67
2017-09-06T03:45:01.586Z,3.40
2017-09-06T03:47:04.108Z,4.07
2017-09-06T03:49:06.544Z,2.70
2017-09-06T03:51:09.028Z,2.47
2017-09-06T03:53:11.502Z,2.43
2017-09-06T03:55:15.110Z,2.43
2017-09-06T03:57:17.716Z,2.10
2017-09-06T03:59:20.149Z,2.53
2017-09-06T04:01:22.604Z,2.50
2017-09-06T04:03:25.148Z,3.03
2017-09-06T04:05:27.608Z,6.43
2017-09-06T04:07:30.036Z,2.63
2017-09-06T04:09:32.537Z,3.30
2017-09-06T04:11:34.969Z,2.63
2017-09-06T04:13:37.480Z,2.47
2017-09-06T04:15:39.969Z,4.50
2017-09-06T04:17:42.478Z,2.10
2017-09-06T04:19:44.954Z,3.27
2017-09-06T04:21:47.457Z,3.23
2017-09-06T04:23:49.892Z,2.77
2017-09-06T04:25:52.342Z,2.60
2017-09-06T04:27:54.812Z,2.00
2017-09-06T04:29:57.312Z,2.60
2017-09-06T04:31:59.780Z,2.30
2017-09-06T04:34:02.346Z,2.70
2017-09-06T04:36:04.829Z,1.70
2017-09-06T04:38:07.315Z,2.10
2017-09-06T04:40:09.772Z,2.33
2017-09-06T04:42:12.321Z,2.17
2017-09-06T04:44:14.969Z,3.10
2017-09-06T04:46:17.487Z,1.90
2017-09-06T04:48:20.012Z,1.93
2017-09-06T04:50:22.452Z,2.23
2017-09-06T04:52:24.953Z,2.80
2017-09-06T04:54:27.448Z,2.77
2017-09-06T04:56:31.531Z,3.27
2017-09-06T04:58:34.036Z,3.77
2017-09-06T05:00:36.570Z,2.20
2017-09-06T05:02:39.176Z,2.33
2017-09-06T05:04:41.849Z,2.33
2017-09-06T05:06:44.332Z,3.07
2017-09-06T05:08:46.880Z,2.23
2017-09-06T05:10:50.287Z,2.80
2017-09-06T05:12:52.834Z,2.00
2017-09-06T05:14:55.295Z,2.63
2017-09-06T05:16:57.784Z,3.20
2017-09-06T05:19:00.341Z,2.40
2017-09-06T05:21:02.776Z,2.03
2017-09-06T05:23:05.354Z,2.70
2017-09-06T05:25:07.798Z,3.00
2017-09-06T05:27:10.272Z,2.93
2017-09-06T05:29:12.828Z,1.83
2017-09-06T05:31:15.262Z,2.90
2017-09-06T05:33:17.773Z,2.40
2017-09-06T05:35:20.513Z,1.97
2017-09-06T05:37:22.982Z,1.97
2017-09-06T05:39:25.496Z,2.17
2017-09-06T05:41:28.030Z,2.53
2017-09-06T05:43:30.460Z,2.57
2017-09-06T05:45:33.004Z,2.13
2017-09-06T05:47:35.475Z,3.00
2017-09-06T05:49:37.947Z,3.27
2017-09-06T05:51:40.463Z,2.03
2017-09-06T05:53:42.955Z,2.50
2017-09-06T05:55:45.415Z,3.10
2017-09-06T05:57:49.015Z,2.23
2017-09-06T05:59:51.484Z,2.23
2017-09-06T06:04:43.733Z,4.57
2017-09-06T06:06:46.232Z,3.93
2017-09-06T06:08:49.802Z,9.67
2017-09-06T06:10:53.239Z,8.17
2017-09-06T06:12:56.717Z,3.00
2017-09-06T06:14:59.258Z,7.80
2017-09-06T06:17:02.688Z,3.53
2017-09-06T06:19:05.196Z,3.13
2017-09-06T06:21:07.795Z,4.57
2017-09-06T06:23:10.241Z,2.83
2017-09-06T06:25:12.759Z,6.90
2017-09-06T06:27:15.241Z,5.60
2017-09-06T06:29:17.750Z,5.20
2017-09-06T06:31:20.287Z,2.53
2017-09-06T06:33:22.729Z,9.23
2017-09-06T06:35:25.181Z,5.10
2017-09-06T06:37:27.654Z,9.50
2017-09-06T06:39:31.097Z,5.17
2017-09-06T06:41:33.532Z,4.10
2017-09-06T06:43:36.900Z,6.90
2017-09-06T06:45:39.434Z,6.47
2017-09-06T06:47:41.910Z,2.70
2017-09-06T06:49:44.381Z,4.33
2017-09-06T06:51:46.840Z,9.90
2017-09-06T06:53:49.377Z,6.30
2017-09-06T06:55:51.851Z,2.20
2017-09-06T06:57:55.177Z,4.53
2017-09-06T06:59:57.608Z,5.10
2017-09-06T07:02:00.094Z,2.07
2017-09-06T07:04:02.529Z,2.80
2017-09-06T07:06:04.973Z,2.53
2017-09-06T07:08:07.514Z,4.83
2017-09-06T07:10:09.963Z,9.03
2017-09-06T07:12:12.451Z,3.40
2017-09-06T07:14:14.936Z,13.50
2017-09-06T07:16:17.382Z,9.33
2017-09-06T07:18:19.829Z,3.50
2017-09-06T07:20:22.356Z,6.87
2017-09-06T07:22:24.904Z,8.93
2017-09-06T07:24:27.393Z,2.50
2017-09-06T07:26:29.920Z,5.27
2017-09-06T07:28:33.343Z,4.93
2017-09-06T07:30:35.818Z,3.33
2017-09-06T07:32:38.348Z,2.63
2017-09-06T07:34:40.861Z,7.07
2017-09-06T07:36:43.355Z,6.57
2017-09-06T07:38:45.919Z,5.40
2017-09-06T07:40:48.348Z,4.43
2017-09-06T07:42:50.843Z,11.43
2017-09-06T07:44:53.323Z,2.87
2017-09-06T07:46:55.788Z,3.60
2017-09-06T07:48:58.300Z,7.40
2017-09-06T07:51:00.820Z,4.07
2017-09-06T07:53:03.288Z,5.80
2017-09-06T07:55:05.747Z,10.33
2017-09-06T07:57:08.299Z,2.60
2017-09-06T07:59:11.662Z,6.60
2017-09-06T08:01:14.149Z,15.17
2017-09-06T08:03:16.608Z,7.47
2017-09-06T08:05:19.048Z,3.33
2017-09-06T08:07:21.562Z,8.40
2017-09-06T08:09:24.054Z,8.97
2017-09-06T08:11:26.491Z,6.73
2017-09-06T08:13:29.002Z,7.90
2017-09-06T08:15:31.474Z,8.03
2017-09-06T08:17:33.929Z,3.57
2017-09-06T08:19:36.389Z,4.00
2017-09-06T08:21:38.916Z,7.07
2017-09-06T08:23:41.353Z,4.27
2017-09-06T08:25:43.804Z,9.17
2017-09-06T08:27:46.265Z,4.37
2017-09-06T08:29:48.843Z,3.23
2017-09-06T08:31:51.295Z,5.13
2017-09-06T08:33:53.891Z,5.20
2017-09-06T08:35:56.421Z,8.10
2017-09-06T08:37:58.968Z,5.57
2017-09-06T08:40:01.502Z,6.97
2017-09-06T08:42:03.973Z,4.67
2017-09-06T08:44:06.414Z,8.83
2017-09-06T08:46:08.873Z,22.37
2017-09-06T08:48:11.316Z,10.10
2017-09-06T08:50:13.772Z,7.57
2017-09-06T08:52:16.236Z,5.27
2017-09-06T08:54:18.780Z,11.30
2017-09-06T08:56:21.232Z,7.33
2017-09-06T08:58:23.721Z,3.63
2017-09-06T09:00:27.808Z,9.93
2017-09-06T09:02:30.257Z,4.97
2017-09-06T09:04:32.822Z,5.17
2017-09-06T09:06:35.288Z,5.63
2017-09-06T09:08:37.724Z,7.63
2017-09-06T09:10:40.234Z,9.40
2017-09-06T09:12:42.700Z,8.33
2017-09-06T09:14:45.236Z,6.27
2017-09-06T09:16:47.705Z,4.90
2017-09-06T09:18:50.150Z,4.90
2017-09-06T09:20:52.689Z,7.33
2017-09-06T09:22:55.160Z,9.90
2017-09-06T09:24:58.302Z,5.50
2017-09-06T09:27:00.732Z,5.13
2017-09-06T09:29:03.285Z,6.57
2017-09-06T09:31:05.757Z,10.07
2017-09-06T09:33:08.199Z,6.83
2017-09-06T09:35:10.797Z,5.47
2017-09-06T09:37:13.240Z,5.67
2017-09-06T09:39:15.752Z,3.63
2017-09-06T09:41:18.374Z,10.47
2017-09-06T09:43:20.883Z,4.73
2017-09-06T09:45:23.417Z,4.93
2017-09-06T09:47:25.988Z,9.13
2017-09-06T09:49:28.422Z,9.13
2017-09-06T09:51:30.889Z,10.33
2017-09-06T09:53:33.444Z,5.20
2017-09-06T09:55:35.881Z,3.47
2017-09-06T09:57:38.414Z,7.27
2017-09-06T09:59:41.021Z,5.17
2017-09-06T10:01:44.856Z,6.77
2017-09-06T10:03:47.331Z,4.23
2017-09-06T10:05:49.928Z,9.70
2017-09-06T10:07:52.430Z,4.83
2017-09-06T10:09:54.899Z,5.87
2017-09-06T10:11:59.857Z,5.77
2017-09-06T10:14:02.318Z,8.87
2017-09-06T10:16:04.774Z,6.10
2017-09-06T10:18:07.250Z,13.47
2017-09-06T10:20:09.692Z,6.30
2017-09-06T10:22:12.177Z,17.63
2017-09-06T10:24:14.633Z,13.47
2017-09-06T10:26:17.068Z,7.50
2017-09-06T10:28:19.553Z,11.53
2017-09-06T10:30:22.008Z,13.40
2017-09-06T10:32:24.442Z,8.80
2017-09-06T10:34:26.976Z,9.90
2017-09-06T10:36:29.508Z,12.07
2017-09-06T10:38:31.997Z,25.33
2017-09-06T10:40:34.433Z,12.10
2017-09-06T10:42:36.984Z,6.60
2017-09-06T10:44:39.435Z,10.10
2017-09-06T10:46:41.957Z,4.87
2017-09-06T10:48:45.506Z,5.87
2017-09-06T10:50:47.977Z,10.53
2017-09-06T10:52:50.481Z,9.10
2017-09-06T10:54:52.946Z,4.97
2017-09-06T10:56:55.456Z,4.30
2017-09-06T10:58:57.955Z,13.63
2017-09-06T11:01:00.422Z,13.20
2017-09-06T11:03:02.960Z,6.90
2017-09-06T11:05:05.509Z,8.70
2017-09-06T11:07:07.988Z,7.43
2017-09-06T11:09:10.429Z,8.07
2017-09-06T11:11:12.942Z,6.23
2017-09-06T11:13:15.421Z,4.17
2017-09-06T11:15:17.859Z,6.37
2017-09-06T11:17:20.412Z,8.37
2017-09-06T11:19:22.984Z,7.37
2017-09-06T11:21:25.467Z,15.40
2017-09-06T11:23:27.942Z,16.17
2017-09-06T11:25:30.424Z,8.57
2017-09-06T11:27:32.939Z,9.27
2017-09-06T11:29:35.492Z,7.63
2017-09-06T11:31:38.048Z,15.73
2017-09-06T11:33:40.564Z,15.40
2017-09-06T11:35:43.045Z,6.60
2017-09-06T11:37:45.517Z,8.80
2017-09-06T11:39:47.972Z,6.13
2017-09-06T11:41:50.408Z,5.07
2017-09-06T11:43:52.933Z,7.80
2017-09-06T11:45:56.353Z,12.50
2017-09-06T11:47:58.846Z,12.30
2017-09-06T11:50:01.339Z,14.07
2017-09-06T11:52:03.797Z,8.23
2017-09-06T11:54:06.372Z,17.77
2017-09-06T11:56:08.898Z,17.50
2017-09-06T11:58:11.353Z,12.80
2017-09-06T12:00:13.792Z,11.07
2017-09-06T12:02:16.276Z,9.97
2017-09-06T12:04:19.626Z,12.57
2017-09-06T12:06:22.097Z,6.90
2017-09-06T12:08:24.659Z,9.47
2017-09-06T12:10:27.144Z,8.97
2017-09-06T12:12:29.588Z,11.80
2017-09-06T12:14:32.074Z,12.50
2017-09-06T12:16:34.649Z,5.27
2017-09-06T12:18:37.180Z,13.90
2017-09-06T12:20:39.703Z,8.57
2017-09-06T12:22:42.188Z,10.30
2017-09-06T12:24:44.640Z,30.20
2017-09-06T12:26:47.132Z,11.17
2017-09-06T12:28:49.592Z,11.87
2017-09-06T12:30:52.204Z,5.47
2017-09-06T12:32:55.903Z,9.53
2017-09-06T12:34:58.448Z,17.53
2017-09-06T12:37:02.722Z,12.03
2017-09-06T12:39:05.309Z,8.30
2017-09-06T12:41:07.841Z,35.57
2017-09-06T12:43:10.358Z,15.40
2017-09-06T12:45:12.818Z,9.50
2017-09-06T12:47:15.324Z,9.37
2017-09-06T12:49:17.900Z,15.93
2017-09-06T12:51:20.424Z,10.83
2017-09-06T12:53:22.900Z,17.80
2017-09-06T12:55:25.431Z,5.30
2017-09-06T12:57:28.034Z,10.60
2017-09-06T12:59:30.478Z,12.17
2017-09-06T13:01:32.920Z,8.80
2017-09-06T13:03:35.479Z,11.10
2017-09-06T13:05:38.959Z,16.67
2017-09-06T13:07:41.406Z,8.83
2017-09-06T13:09:43.904Z,7.00
2017-09-06T13:11:46.346Z,7.33
2017-09-06T13:13:48.842Z,6.10
2017-09-06T13:15:51.301Z,10.33
2017-09-06T13:17:53.798Z,8.93
2017-09-06T13:19:56.277Z,23.43
2017-09-06T13:21:58.811Z,9.10
2017-09-06T13:24:01.354Z,7.30
2017-09-06T13:26:03.829Z,10.50
2017-09-06T13:28:06.363Z,9.77
2017-09-06T13:30:09.868Z,9.63
2017-09-06T13:32:12.326Z,13.80
2017-09-06T13:34:15.567Z,13.13
2017-09-06T13:36:18.176Z,12.80
2017-09-06T13:38:20.750Z,10.43
2017-09-06T13:40:24.208Z,17.90
2017-09-06T13:42:26.657Z,9.87
2017-09-06T13:44:29.157Z,11.27
2017-09-06T13:46:31.631Z,7.80
2017-09-06T13:48:34.081Z,7.00
2017-09-06T13:50:36.550Z,8.33
2017-09-06T13:52:39.141Z,7.33
2017-09-06T13:54:41.609Z,7.00
2017-09-06T13:56:44.144Z,11.17
2017-09-06T13:58:46.611Z,6.27
2017-09-06T14:00:49.088Z,6.90
2017-09-06T14:02:51.550Z,8.50
2017-09-06T14:04:54.104Z,12.67
2017-09-06T14:06:57.448Z,6.07
2017-09-06T14:08:59.990Z,11.93
2017-09-06T14:11:02.462Z,7.27
2017-09-06T14:13:04.974Z,9.07
2017-09-06T14:15:07.427Z,15.77
2017-09-06T14:17:10.076Z,14.80
2017-09-06T14:19:12.561Z,10.87
2017-09-06T14:21:15.017Z,12.43
2017-09-06T14:23:17.588Z,5.83
2017-09-06T14:25:20.040Z,10.47
2017-09-06T14:27:22.475Z,8.97
2017-09-06T14:29:24.965Z,19.03
2017-09-06T14:31:27.440Z,6.20
2017-09-06T14:33:29.941Z,10.57
2017-09-06T14:35:32.520Z,14.83
2017-09-06T14:37:35.028Z,8.13
2017-09-06T14:39:37.487Z,10.27
2017-09-06T14:41:41.371Z,6.90
2017-09-06T14:43:43.817Z,4.20
2017-09-06T14:45:46.297Z,12.10
2017-09-06T14:47:49.782Z,9.00
2017-09-06T14:49:53.185Z,16.07
2017-09-06T14:51:55.716Z,7.43
2017-09-06T14:53:58.289Z,8.90
2017-09-06T14:56:00.797Z,9.50
2017-09-06T14:58:03.285Z,10.37
2017-09-06T15:00:05.790Z,6.70
2017-09-06T15:02:08.241Z,12.33
2017-09-06T15:04:10.712Z,8.07
2017-09-06T15:06:13.297Z,7.97
2017-09-06T15:08:15.928Z,13.10
2017-09-06T15:10:18.493Z,16.43
2017-09-06T15:12:21.071Z,8.30
2017-09-06T15:14:23.535Z,12.37
2017-09-06T15:16:26.012Z,9.23
2017-09-06T15:18:30.405Z,10.90
2017-09-06T15:20:35.673Z,9.43
2017-09-06T15:22:38.173Z,9.30
2017-09-06T15:24:40.809Z,14.13
2017-09-06T15:26:43.362Z,17.80
2017-09-06T15:28:45.850Z,15.93
2017-09-06T15:30:48.397Z,11.33
2017-09-06T15:32:50.968Z,8.90
2017-09-06T15:34:53.568Z,8.80
2017-09-06T15:36:56.966Z,12.33
2017-09-06T15:38:59.417Z,17.07
2017-09-06T15:41:01.864Z,8.50
2017-09-06T15:43:05.234Z,12.93
2017-09-06T15:45:07.692Z,8.23
2017-09-06T15:47:10.129Z,11.87
2017-09-06T15:49:12.613Z,10.40
2017-09-06T15:51:15.173Z,10.60
2017-09-06T15:53:17.746Z,12.70
2017-09-06T15:55:20.307Z,9.20
2017-09-06T15:57:22.893Z,10.50
2017-09-06T15:59:25.414Z,11.00
2017-09-06T16:01:27.896Z,14.80
2017-09-06T16:03:30.351Z,20.00
2017-09-06T16:05:32.851Z,8.63
2017-09-06T16:07:35.366Z,9.80
2017-09-06T16:09:39.469Z,14.33
2017-09-06T16:11:41.964Z,12.93
2017-09-06T16:13:45.481Z,14.23
2017-09-06T16:15:47.965Z,12.77
2017-09-06T16:17:50.513Z,8.30
2017-09-06T16:19:53.043Z,14.43
2017-09-06T16:21:55.552Z,13.07
2017-09-06T16:23:58.178Z,16.00
2017-09-06T16:26:00.679Z,11.90
2017-09-06T16:28:03.146Z,18.00
2017-09-06T16:30:05.592Z,10.73
2017-09-06T16:32:08.064Z,9.33
2017-09-06T16:34:10.599Z,21.43
2017-09-06T16:36:13.050Z,13.37
2017-09-06T16:38:15.524Z,6.77
2017-09-06T16:40:17.957Z,9.13
2017-09-06T16:42:20.479Z,11.37
2017-09-06T16:44:23.093Z,19.33
2017-09-06T16:46:25.536Z,17.87
2017-09-06T16:48:27.973Z,16.00
2017-09-06T16:50:30.541Z,10.47
2017-09-06T16:52:33.067Z,18.30
2017-09-06T16:54:35.522Z,10.00
2017-09-06T16:56:38.110Z,10.53
2017-09-06T16:58:40.595Z,16.00
2017-09-06T17:00:43.160Z,13.40
2017-09-06T17:02:45.649Z,10.37
2017-09-06T17:04:48.100Z,16.07
2017-09-06T17:06:50.568Z,14.37
2017-09-06T17:08:53.076Z,15.00
2017-09-06T17:10:56.337Z,11.37
2017-09-06T17:12:58.780Z,12.30
2017-09-06T17:15:01.417Z,13.57
2017-09-06T17:17:03.939Z,14.43
2017-09-06T17:19:06.509Z,8.30
2017-09-06T17:21:09.064Z,13.13
2017-09-06T17:23:11.643Z,17.20
2017-09-06T17:25:14.217Z,15.00
2017-09-06T17:27:16.692Z,20.20
2017-09-06T17:29:19.209Z,14.40
2017-09-06T17:31:21.745Z,12.47
2017-09-06T17:33:24.277Z,9.87
2017-09-06T17:35:26.744Z,12.50
2017-09-06T17:37:29.213Z,14.70
2017-09-06T17:39:31.697Z,12.23
2017-09-06T17:41:34.172Z,13.77
2017-09-06T17:43:36.770Z,12.60
2017-09-06T17:45:39.301Z,12.57
2017-09-06T17:47:41.761Z,14.27
2017-09-06T17:49:44.284Z,11.27
2017-09-06T17:51:46.793Z,9.67
2017-09-06T17:53:49.428Z,13.53
2017-09-06T17:55:51.886Z,12.70
2017-09-06T17:57:54.428Z,13.40
2017-09-06T17:59:56.863Z,13.17
2017-09-06T18:01:59.310Z,14.90
2017-09-06T18:04:01.881Z,11.43
2017-09-06T18:06:04.319Z,8.97
2017-09-06T18:08:06.782Z,16.17
2017-09-06T18:10:09.450Z,15.30
2017-09-06T18:12:13.301Z,18.07
2017-09-06T18:14:15.840Z,10.70
2017-09-06T18:16:18.313Z,11.50
2017-09-06T18:18:20.845Z,12.00
2017-09-06T18:20:23.299Z,17.50
2017-09-06T18:22:25.792Z,12.37
2017-09-06T18:24:28.327Z,14.43
2017-09-06T18:26:30.791Z,15.60
2017-09-06T18:28:33.405Z,16.23
2017-09-06T18:30:35.869Z,14.13
2017-09-06T18:32:38.347Z,13.73
2017-09-06T18:34:40.923Z,10.63
2017-09-06T18:36:43.451Z,14.57
2017-09-06T18:38:45.988Z,14.83
2017-09-06T18:40:48.596Z,14.97
2017-09-06T18:42:51.174Z,13.73
2017-09-06T18:44:53.664Z,12.00
2017-09-06T18:46:56.332Z,11.17
2017-09-06T18:48:59.785Z,11.53
2017-09-06T18:51:02.380Z,14.57
2017-09-06T18:53:04.885Z,14.60
2017-09-06T18:55:07.366Z,13.53
2017-09-06T18:57:10.177Z,7.87
2017-09-06T18:59:12.722Z,14.77
2017-09-06T19:01:15.220Z,12.13
2017-09-06T19:03:17.765Z,17.53
2017-09-06T19:05:20.264Z,11.80
2017-09-06T19:07:22.804Z,12.03
2017-09-06T19:09:25.336Z,12.80
2017-09-06T19:11:27.805Z,12.37
2017-09-06T19:13:31.181Z,17.80
2017-09-06T19:15:33.635Z,12.77
2017-09-06T19:17:36.112Z,10.03
2017-09-06T19:19:38.598Z,11.07
2017-09-06T19:21:41.149Z,17.60
2017-09-06T19:23:43.662Z,14.50
2017-09-06T19:25:46.158Z,16.17
2017-09-06T19:27:48.646Z,12.33
2017-09-06T19:29:51.147Z,11.50
2017-09-06T19:31:53.637Z,11.23
2017-09-06T19:33:56.105Z,10.33
2017-09-06T19:35:58.670Z,11.73
2017-09-06T19:38:01.116Z,15.60
2017-09-06T19:40:03.568Z,16.77
2017-09-06T19:42:06.177Z,11.60
2017-09-06T19:44:08.623Z,11.67
2017-09-06T19:46:11.225Z,13.23
2017-09-06T19:48:13.756Z,11.03
2017-09-06T19:50:16.227Z,11.80
2017-09-06T19:52:18.740Z,12.47
2017-09-06T19:54:21.252Z,9.83
2017-09-06T19:56:23.689Z,12.33
2017-09-06T19:58:26.152Z,10.07
2017-09-06T20:00:28.664Z,13.07
2017-09-06T20:02:31.097Z,11.90
2017-09-06T20:04:33.656Z,12.93
2017-09-06T20:06:36.151Z,9.80
2017-09-06T20:08:38.706Z,13.17
2017-09-06T20:10:41.160Z,18.90
2017-09-06T20:12:43.637Z,12.60
2017-09-06T20:14:47.761Z,15.33
2017-09-06T20:16:50.222Z,12.97
2017-09-06T20:18:52.798Z,12.40
2017-09-06T20:20:55.425Z,14.93
2017-09-06T20:22:57.967Z,17.30
2017-09-06T20:25:00.463Z,14.03
2017-09-06T20:27:02.902Z,16.70
2017-09-06T20:29:05.354Z,12.43
2017-09-06T20:31:07.829Z,9.70
2017-09-06T20:33:10.306Z,9.93
2017-09-06T20:35:12.749Z,11.00
2017-09-06T20:37:15.254Z,12.90
2017-09-06T20:39:17.780Z,14.00
2017-09-06T20:41:20.215Z,7.77
2017-09-06T20:43:22.733Z,13.53
2017-09-06T20:45:25.209Z,13.33
2017-09-06T20:47:27.690Z,10.97
2017-09-06T20:49:30.259Z,7.27
2017-09-06T20:51:32.776Z,8.53
2017-09-06T20:53:35.270Z,11.37
2017-09-06T20:55:37.750Z,12.90
2017-09-06T20:57:40.285Z,12.03
2017-09-06T20:59:42.819Z,11.30
2017-09-06T21:01:45.333Z,7.80
2017-09-06T21:03:47.830Z,9.57
2017-09-06T21:05:50.312Z,17.03
2017-09-06T21:07:52.800Z,12.70
2017-09-06T21:09:55.311Z,11.50
2017-09-06T21:11:57.754Z,10.77
2017-09-06T21:14:00.313Z,15.03
2017-09-06T21:16:04.330Z,11.63
2017-09-06T21:18:06.895Z,8.83
2017-09-06T21:20:09.461Z,17.27
2017-09-06T21:22:12.034Z,14.27
2017-09-06T21:24:14.485Z,13.23
2017-09-06T21:26:16.953Z,16.60
2017-09-06T21:28:19.501Z,11.50
2017-09-06T21:30:22.962Z,9.30
2017-09-06T21:32:25.430Z,12.63
2017-09-06T21:34:27.958Z,11.70
2017-09-06T21:36:30.404Z,10.23
2017-09-06T21:38:33.023Z,14.07
2017-09-06T21:40:35.480Z,9.30
2017-09-06T21:42:37.922Z,12.13
2017-09-06T21:44:40.536Z,11.67
2017-09-06T21:46:42.984Z,12.67
2017-09-06T21:48:45.444Z,11.97
2017-09-06T21:50:47.908Z,9.93
2017-09-06T21:52:50.444Z,9.43
2017-09-06T21:54:52.943Z,11.63
2017-09-06T21:56:55.562Z,13.13
2017-09-06T21:58:58.009Z,11.60
2017-09-06T22:01:00.450Z,15.63
2017-09-06T22:03:03.052Z,8.20
2017-09-06T22:05:05.608Z,10.00
2017-09-06T22:07:08.224Z,8.17
2017-09-06T22:09:10.902Z,14.63
2017-09-06T22:11:13.345Z,11.40
2017-09-06T22:13:15.786Z,9.83
2017-09-06T22:15:18.294Z,9.27
2017-09-06T22:17:20.850Z,15.43
2017-09-06T22:19:23.298Z,9.17
2017-09-06T22:21:25.892Z,9.23
2017-09-06T22:23:58.820Z,8.67
2017-09-06T22:26:01.320Z,16.90
2017-09-06T22:28:03.812Z,11.77
2017-09-06T22:30:06.319Z,8.03
2017-09-06T22:32:09.096Z,11.50
2017-09-06T22:34:11.595Z,9.53
2017-09-06T22:36:14.048Z,12.57
2017-09-06T22:38:16.531Z,12.03
2017-09-06T22:40:19.181Z,11.40
2017-09-06T22:42:21.631Z,12.80
2017-09-06T22:44:24.224Z,10.93
2017-09-06T22:46:26.746Z,13.80
2017-09-06T22:48:29.219Z,8.53
2017-09-06T22:50:31.744Z,14.30
2017-09-06T22:52:34.245Z,15.03
2017-09-06T22:54:36.784Z,9.60
2017-09-06T22:56:39.317Z,9.20
2017-09-06T22:58:41.936Z,16.07
2017-09-06T23:00:44.389Z,11.10
2017-09-06T23:02:47.019Z,16.30
2017-09-06T23:04:49.496Z,10.20
2017-09-06T23:06:51.996Z,9.97
2017-09-06T23:08:54.464Z,11.07
2017-09-06T23:10:57.001Z,7.77
2017-09-06T23:12:59.521Z,11.73
2017-09-06T23:15:02.266Z,7.90
2017-09-06T23:17:04.798Z,12.13
2017-09-06T23:19:08.788Z,11.60
2017-09-06T23:21:11.269Z,18.77
2017-09-06T23:23:13.769Z,16.40
2017-09-06T23:25:16.216Z,14.87
2017-09-06T23:27:18.702Z,13.33
2017-09-06T23:29:21.213Z,10.07
2017-09-06T23:31:23.734Z,12.53
2017-09-06T23:33:26.172Z,16.53
2017-09-06T23:35:28.644Z,12.50
2017-09-06T23:37:31.176Z,10.47
2017-09-06T23:39:33.716Z,11.17
2017-09-06T23:41:36.184Z,17.47
2017-09-06T23:43:38.811Z,11.43
2017-09-06T23:45:41.406Z,9.30
2017-09-06T23:47:44.024Z,8.27
2017-09-06T23:49:46.613Z,15.80
2017-09-06T23:51:49.048Z,19.43
2017-09-06T23:53:51.694Z,7.97
2017-09-06T23:55:54.250Z,11.53
2017-09-06T23:57:56.779Z,13.33
2017-09-06T23:59:59.308Z,10.70
